Time,TemperatureF,DewpointF,PressureIn,WindDirection,WindDirectionDegrees,WindSpeedMPH,WindSpeedGustMPH,Humidity,HourlyPrecipIn,Conditions,Clouds,dailyrainin,SolarRadiationWatts/m^2,SoftwareType,DateUTC
2013-06-26 00:02:00,62.0,44.0,-100.00,WNW,293,9.0,15.0,51,0.00,,,0.00,0.000000,,2013-06-26 06:02:00,
2013-06-26 00:11:00,62.0,44.0,-100.00,WNW,293,9.0,15.0,51,0.00,,,0.00,0.000000,,2013-06-26 06:11:00,
2013-06-26 00:22:00,63.0,43.0,-100.00,WNW,287,7.0,12.0,48,0.00,,,0.00,0.000000,,2013-06-26 06:22:00,
2013-06-26 00:44:00,63.0,43.0,-100.00,WNW,287,7.0,12.0,48,0.00,,,0.00,0.000000,,2013-06-26 06:44:00,
2013-06-26 00:53:00,63.0,43.0,-100.00,WNW,287,7.0,12.0,48,0.00,,,0.00,0.000000,,2013-06-26 06:53:00,
2013-06-26 01:01:00,63.0,43.0,-100.00,WNW,287,7.0,12.0,48,0.00,,,0.00,0.000000,,2013-06-26 07:01:00,
2013-06-26 01:11:00,63.0,43.0,-100.00,WNW,287,7.0,12.0,48,0.00,,,0.00,0.000000,,2013-06-26 07:11:00,
2013-06-26 01:22:00,62.0,46.0,-100.00,WNW,296,8.0,10.0,56,0.00,,,0.00,0.000000,,2013-06-26 07:22:00,
2013-06-26 01:53:00,62.0,46.0,-100.00,WNW,296,8.0,10.0,56,0.00,,,0.00,0.000000,,2013-06-26 07:53:00,
2013-06-26 02:01:00,62.0,46.0,-100.00,WNW,296,8.0,10.0,56,0.00,,,0.00,0.000000,,2013-06-26 08:01:00,
2013-06-26 02:11:00,62.0,46.0,-100.00,WNW,296,8.0,10.0,56,0.00,,,0.00,0.000000,,2013-06-26 08:11:00,
2013-06-26 02:22:00,66.0,45.0,-100.00,WNW,300,12.0,18.0,47,0.00,,,0.00,0.000000,,2013-06-26 08:22:00,
2013-06-26 02:43:00,66.0,45.0,-100.00,WNW,300,12.0,18.0,47,0.00,,,0.00,0.000000,,2013-06-26 08:43:00,
2013-06-26 02:53:00,66.0,45.0,-100.00,WNW,300,12.0,18.0,47,0.00,,,0.00,0.000000,,2013-06-26 08:53:00,
2013-06-26 03:01:00,66.0,45.0,-100.00,WNW,300,12.0,18.0,47,0.00,,,0.00,0.000000,,2013-06-26 09:01:00,
2013-06-26 03:11:00,66.0,45.0,-100.00,WNW,300,12.0,18.0,47,0.00,,,0.00,0.000000,,2013-06-26 09:11:00,
2013-06-26 03:22:00,63.0,47.0,-100.00,NW,319,8.0,21.0,55,0.00,,,0.00,0.000000,,2013-06-26 09:22:00,
2013-06-26 03:43:00,63.0,47.0,-100.00,NW,319,8.0,21.0,55,0.00,,,0.00,0.000000,,2013-06-26 09:43:00,
2013-06-26 03:53:00,63.0,47.0,-100.00,NW,319,8.0,21.0,55,0.00,,,0.00,0.000000,,2013-06-26 09:53:00,
2013-06-26 04:01:00,63.0,47.0,-100.00,NW,319,8.0,21.0,55,0.00,,,0.00,0.000000,,2013-06-26 10:01:00,
2013-06-26 04:12:00,63.0,47.0,-100.00,NW,319,8.0,21.0,55,0.00,,,0.00,0.000000,,2013-06-26 10:12:00,
2013-06-26 04:22:00,59.0,46.0,-100.00,NW,310,11.0,16.0,63,0.00,,,0.00,0.000000,,2013-06-26 10:22:00,
2013-06-26 04:43:00,59.0,46.0,-100.00,NW,310,11.0,16.0,63,0.00,,,0.00,0.000000,,2013-06-26 10:43:00,
2013-06-26 04:53:00,59.0,46.0,-100.00,NW,310,11.0,16.0,63,0.00,,,0.00,0.000000,,2013-06-26 10:53:00,
2013-06-26 05:02:00,59.0,46.0,-100.00,NW,310,11.0,16.0,63,0.00,,,0.00,0.000000,,2013-06-26 11:02:00,
2013-06-26 05:11:00,59.0,46.0,-100.00,NW,310,11.0,16.0,63,0.00,,,0.00,0.000000,,2013-06-26 11:11:00,
2013-06-26 05:22:00,60.0,45.0,-100.00,WNW,287,14.0,23.0,58,0.00,,,0.00,0.000000,,2013-06-26 11:22:00,
2013-06-26 05:44:00,60.0,45.0,-100.00,WNW,287,14.0,23.0,58,0.00,,,0.00,0.000000,,2013-06-26 11:44:00,
2013-06-26 05:52:00,60.0,45.0,-100.00,WNW,287,14.0,23.0,58,0.00,,,0.00,0.000000,,2013-06-26 11:52:00,
2013-06-26 06:02:00,60.0,45.0,-100.00,WNW,287,14.0,23.0,58,0.00,,,0.00,0.000000,,2013-06-26 12:02:00,
2013-06-26 06:12:00,60.0,45.0,-100.00,WNW,287,14.0,23.0,58,0.00,,,0.00,0.000000,,2013-06-26 12:12:00,
2013-06-26 06:22:00,61.0,44.0,-100.00,WNW,294,16.0,22.0,54,0.00,,,0.00,15.000000,,2013-06-26 12:22:00,
2013-06-26 06:43:00,61.0,44.0,-100.00,WNW,294,16.0,22.0,54,0.00,,,0.00,15.000000,,2013-06-26 12:43:00,
2013-06-26 06:52:00,61.0,44.0,-100.00,WNW,294,16.0,22.0,54,0.00,,,0.00,15.000000,,2013-06-26 12:52:00,
2013-06-26 07:02:00,61.0,44.0,-100.00,WNW,294,16.0,22.0,54,0.00,,,0.00,15.000000,,2013-06-26 13:02:00,
2013-06-26 07:11:00,61.0,44.0,-100.00,WNW,294,16.0,22.0,54,0.00,,,0.00,15.000000,,2013-06-26 13:11:00,
2013-06-26 07:22:00,66.0,46.0,-100.00,West,269,12.0,20.0,49,0.00,,,0.00,105.000000,,2013-06-26 13:22:00,
2013-06-26 07:43:00,66.0,46.0,-100.00,West,269,12.0,20.0,49,0.00,,,0.00,105.000000,,2013-06-26 13:43:00,
2013-06-26 07:53:00,66.0,46.0,-100.00,West,269,12.0,20.0,49,0.00,,,0.00,105.000000,,2013-06-26 13:53:00,
2013-06-26 08:02:00,66.0,46.0,-100.00,West,269,12.0,20.0,49,0.00,,,0.00,105.000000,,2013-06-26 14:02:00,
2013-06-26 08:12:00,66.0,46.0,-100.00,West,269,12.0,20.0,49,0.00,,,0.00,105.000000,,2013-06-26 14:12:00,
2013-06-26 08:42:00,71.0,48.0,-100.00,North,9,5.0,19.0,44,0.00,,,0.00,390.000000,,2013-06-26 14:42:00,
2013-06-26 08:53:00,71.0,48.0,-100.00,North,9,5.0,19.0,44,0.00,,,0.00,390.000000,,2013-06-26 14:53:00,
2013-06-26 09:02:00,71.0,48.0,-100.00,North,9,5.0,19.0,44,0.00,,,0.00,390.000000,,2013-06-26 15:02:00,
2013-06-26 09:22:00,74.0,49.0,-100.00,NE,37,4.0,9.0,42,0.00,,,0.00,572.000000,,2013-06-26 15:22:00,
2013-06-26 09:53:00,74.0,49.0,-100.00,NE,37,4.0,9.0,42,0.00,,,0.00,572.000000,,2013-06-26 15:53:00,
2013-06-26 10:01:00,74.0,49.0,-100.00,NE,37,4.0,9.0,42,0.00,,,0.00,572.000000,,2013-06-26 16:01:00,
2013-06-26 10:11:00,74.0,49.0,-100.00,NE,37,4.0,9.0,42,0.00,,,0.00,572.000000,,2013-06-26 16:11:00,
2013-06-26 10:22:00,72.0,47.0,-100.00,NNE,33,6.0,12.0,41,0.00,,,0.00,786.000000,,2013-06-26 16:22:00,
2013-06-26 10:43:00,72.0,47.0,-100.00,NNE,33,6.0,12.0,41,0.00,,,0.00,786.000000,,2013-06-26 16:43:00,
2013-06-26 10:52:00,72.0,47.0,-100.00,NNE,33,6.0,12.0,41,0.00,,,0.00,786.000000,,2013-06-26 16:52:00,
2013-06-26 11:02:00,72.0,47.0,-100.00,NNE,33,6.0,12.0,41,0.00,,,0.00,786.000000,,2013-06-26 17:02:00,
2013-06-26 11:11:00,72.0,47.0,-100.00,NNE,33,6.0,12.0,41,0.00,,,0.00,786.000000,,2013-06-26 17:11:00,
2013-06-26 11:22:00,77.0,50.0,-100.00,ENE,73,5.0,9.0,39,0.00,,,0.00,878.000000,,2013-06-26 17:22:00,
2013-06-26 11:43:00,77.0,50.0,-100.00,ENE,73,5.0,9.0,39,0.00,,,0.00,878.000000,,2013-06-26 17:43:00,
2013-06-26 11:52:00,77.0,50.0,-100.00,ENE,73,5.0,9.0,39,0.00,,,0.00,878.000000,,2013-06-26 17:52:00,
2013-06-26 12:01:00,77.0,50.0,-100.00,ENE,73,5.0,9.0,39,0.00,,,0.00,878.000000,,2013-06-26 18:01:00,
2013-06-26 12:11:00,77.0,50.0,-100.00,ENE,73,5.0,9.0,39,0.00,,,0.00,878.000000,,2013-06-26 18:11:00,
2013-06-26 12:22:00,78.0,49.0,-100.00,South,179,4.0,11.0,36,0.00,,,0.00,1140.000000,,2013-06-26 18:22:00,
2013-06-26 12:43:00,78.0,49.0,-100.00,South,179,4.0,11.0,36,0.00,,,0.00,1140.000000,,2013-06-26 18:43:00,
2013-06-26 12:52:00,78.0,49.0,-100.00,South,179,4.0,11.0,36,0.00,,,0.00,1140.000000,,2013-06-26 18:52:00,
2013-06-26 13:02:00,78.0,49.0,-100.00,South,179,4.0,11.0,36,0.00,,,0.00,1140.000000,,2013-06-26 19:02:00,
2013-06-26 13:11:00,78.0,49.0,-100.00,South,179,4.0,11.0,36,0.00,,,0.00,1140.000000,,2013-06-26 19:11:00,
2013-06-26 13:22:00,80.0,50.0,-100.00,NE,39,10.0,16.0,35,0.00,,,0.00,1351.000000,,2013-06-26 19:22:00,
2013-06-26 13:43:00,80.0,50.0,-100.00,NE,39,10.0,16.0,35,0.00,,,0.00,1351.000000,,2013-06-26 19:43:00,
2013-06-26 13:52:00,80.0,50.0,-100.00,NE,39,10.0,16.0,35,0.00,,,0.00,1351.000000,,2013-06-26 19:52:00,
2013-06-26 14:01:00,80.0,50.0,-100.00,NE,39,10.0,16.0,35,0.00,,,0.00,1351.000000,,2013-06-26 20:01:00,
2013-06-26 14:12:00,80.0,50.0,-100.00,NE,39,10.0,16.0,35,0.00,,,0.00,1351.000000,,2013-06-26 20:12:00,
2013-06-26 14:22:00,76.0,50.0,-100.00,NNE,31,5.0,13.0,40,0.00,,,0.00,623.000000,,2013-06-26 20:22:00,
2013-06-26 14:43:00,76.0,50.0,-100.00,NNE,31,5.0,13.0,40,0.00,,,0.00,623.000000,,2013-06-26 20:43:00,
2013-06-26 14:52:00,76.0,50.0,-100.00,NNE,31,5.0,13.0,40,0.00,,,0.00,623.000000,,2013-06-26 20:52:00,
2013-06-26 15:02:00,76.0,50.0,-100.00,NNE,31,5.0,13.0,40,0.00,,,0.00,623.000000,,2013-06-26 21:02:00,
2013-06-26 15:11:00,76.0,50.0,-100.00,NNE,31,5.0,13.0,40,0.00,,,0.00,623.000000,,2013-06-26 21:11:00,
2013-06-26 15:22:00,77.0,46.0,-100.00,East,101,5.0,12.0,34,0.00,,,0.00,739.000000,,2013-06-26 21:22:00,
2013-06-26 15:43:00,77.0,46.0,-100.00,East,101,5.0,12.0,34,0.00,,,0.00,739.000000,,2013-06-26 21:43:00,
2013-06-26 15:52:00,77.0,46.0,-100.00,East,101,5.0,12.0,34,0.00,,,0.00,739.000000,,2013-06-26 21:52:00,
2013-06-26 16:01:00,77.0,46.0,-100.00,East,101,5.0,12.0,34,0.00,,,0.00,739.000000,,2013-06-26 22:01:00,
2013-06-26 16:11:00,77.0,46.0,-100.00,East,101,5.0,12.0,34,0.00,,,0.00,739.000000,,2013-06-26 22:11:00,
2013-06-26 16:22:00,75.0,48.0,-100.00,NE,45,8.0,15.0,38,0.00,,,0.00,520.000000,,2013-06-26 22:22:00,
2013-06-26 16:43:00,75.0,48.0,-100.00,NE,45,8.0,15.0,38,0.00,,,0.00,520.000000,,2013-06-26 22:43:00,
2013-06-26 16:52:00,75.0,48.0,-100.00,NE,45,8.0,15.0,38,0.00,,,0.00,520.000000,,2013-06-26 22:52:00,
2013-06-26 17:01:00,75.0,48.0,-100.00,NE,45,8.0,15.0,38,0.00,,,0.00,520.000000,,2013-06-26 23:01:00,
2013-06-26 17:11:00,75.0,48.0,-100.00,NE,45,8.0,15.0,38,0.00,,,0.00,520.000000,,2013-06-26 23:11:00,
2013-06-26 17:22:00,77.0,49.0,-100.00,NNE,22,8.0,14.0,37,0.00,,,0.00,504.000000,,2013-06-26 23:22:00,
2013-06-26 17:43:00,77.0,49.0,-100.00,NNE,22,8.0,14.0,37,0.00,,,0.00,504.000000,,2013-06-26 23:43:00,
2013-06-26 17:53:00,77.0,49.0,-100.00,NNE,22,8.0,14.0,37,0.00,,,0.00,504.000000,,2013-06-26 23:53:00,
2013-06-26 18:01:00,77.0,49.0,-100.00,NNE,22,8.0,14.0,37,0.00,,,0.00,504.000000,,2013-06-27 00:01:00,
2013-06-26 18:11:00,77.0,49.0,-100.00,NNE,22,8.0,14.0,37,0.00,,,0.00,504.000000,,2013-06-27 00:11:00,
2013-06-26 18:53:00,73.0,49.0,-100.00,North,4,7.0,16.0,42,0.00,,,0.00,287.000000,,2013-06-27 00:53:00,
2013-06-26 19:01:00,73.0,49.0,-100.00,North,4,7.0,16.0,42,0.00,,,0.00,287.000000,,2013-06-27 01:01:00,
2013-06-26 19:11:00,73.0,49.0,-100.00,North,4,7.0,16.0,42,0.00,,,0.00,287.000000,,2013-06-27 01:11:00,
2013-06-26 19:21:00,73.0,49.0,-100.00,North,4,7.0,16.0,42,0.00,,,0.00,287.000000,,2013-06-27 01:21:00,
2013-06-26 19:22:00,71.0,51.0,-100.00,NW,306,4.0,11.0,49,0.00,,,0.00,114.000000,,2013-06-27 01:22:00,
2013-06-26 19:43:00,71.0,51.0,-100.00,NW,306,4.0,11.0,49,0.00,,,0.00,114.000000,,2013-06-27 01:43:00,
2013-06-26 19:53:00,71.0,51.0,-100.00,NW,306,4.0,11.0,49,0.00,,,0.00,114.000000,,2013-06-27 01:53:00,
2013-06-26 20:01:00,71.0,51.0,-100.00,NW,306,4.0,11.0,49,0.00,,,0.00,114.000000,,2013-06-27 02:01:00,
2013-06-26 20:11:00,71.0,51.0,-100.00,NW,306,4.0,11.0,49,0.00,,,0.00,114.000000,,2013-06-27 02:11:00,
2013-06-26 20:42:00,69.0,53.0,-100.00,West,260,3.0,4.0,57,0.00,,,0.00,100.000000,,2013-06-27 02:42:00,
2013-06-26 20:52:00,69.0,53.0,-100.00,West,260,3.0,4.0,57,0.00,,,0.00,100.000000,,2013-06-27 02:52:00,
2013-06-26 21:02:00,69.0,53.0,-100.00,West,260,3.0,4.0,57,0.00,,,0.00,100.000000,,2013-06-27 03:02:00,
2013-06-26 21:11:00,69.0,53.0,-100.00,West,260,3.0,4.0,57,0.00,,,0.00,100.000000,,2013-06-27 03:11:00,
2013-06-26 21:21:00,69.0,53.0,-100.00,West,260,3.0,4.0,57,0.00,,,0.00,100.000000,,2013-06-27 03:21:00,
2013-06-26 21:22:00,64.0,54.0,-100.00,NW,305,5.0,13.0,71,0.00,,,0.00,11.000000,,2013-06-27 03:22:00,
2013-06-26 21:52:00,64.0,54.0,-100.00,NW,305,5.0,13.0,71,0.00,,,0.00,11.000000,,2013-06-27 03:52:00,
2013-06-26 22:01:00,64.0,54.0,-100.00,NW,305,5.0,13.0,71,0.00,,,0.00,11.000000,,2013-06-27 04:01:00,
2013-06-26 22:11:00,64.0,54.0,-100.00,NW,305,5.0,13.0,71,0.00,,,0.00,11.000000,,2013-06-27 04:11:00,
2013-06-26 22:42:00,63.0,54.0,-100.00,WNW,296,5.0,12.0,72,0.00,,,0.00,0.000000,,2013-06-27 04:42:00,
2013-06-26 22:53:00,63.0,54.0,-100.00,WNW,296,5.0,12.0,72,0.00,,,0.00,0.000000,,2013-06-27 04:53:00,
2013-06-26 23:02:00,63.0,54.0,-100.00,WNW,296,5.0,12.0,72,0.00,,,0.00,0.000000,,2013-06-27 05:02:00,
2013-06-26 23:12:00,63.0,54.0,-100.00,WNW,296,5.0,12.0,72,0.00,,,0.00,0.000000,,2013-06-27 05:12:00,
2013-06-26 23:21:00,63.0,54.0,-100.00,WNW,296,5.0,12.0,72,0.00,,,0.00,0.000000,,2013-06-27 05:21:00,
2013-06-26 23:22:00,59.0,52.0,-100.00,SW,224,4.0,9.0,77,0.00,,,0.00,0.000000,,2013-06-27 05:22:00,
2013-06-26 23:42:00,59.0,52.0,-100.00,SW,224,4.0,9.0,77,0.00,,,0.00,0.000000,,2013-06-27 05:42:00,
2013-06-26 23:53:00,59.0,52.0,-100.00,SW,224,4.0,9.0,77,0.00,,,0.00,0.000000,,2013-06-27 05:53:00,